EWG5EC EDDL-EDDS
Flight info
| Callsign | EWG5EC |
|---|---|
| Flight time | 0h 36m |
| Altitude | 23000 |
| Route | KUMIK5Z KUMIK L603 BOMBI N850 KRH T128 BADSO BADSO2A |
| Aircraft | A320/M-SDE3FGHIRWY/LB1 |
Departure
| Time | 2026-05-07 21:04 |
|---|---|
| Airport | Düsseldorf Airport (EDDL) |
Arrival
| Time | 2026-05-07 21:41 |
|---|---|
| Airport | Stuttgart Airport (EDDS) |
| Time | Latitude | Longitude | Altitude | Speed | Heading |
|---|---|---|---|---|---|
| 2026-05-07 20:24 | 51.28035 | 6.76223 | 124 ft | 0 kts | 163° |
| 2026-05-07 20:26 | 51.28041 | 6.76220 | 125 ft | 0 kts | 163° |
| 2026-05-07 20:50 | 51.28043 | 6.76220 | 101 ft | 2 kts | 163° |
| 2026-05-07 20:50 | 51.28068 | 6.76208 | 124 ft | 4 kts | 166° |
| 2026-05-07 20:50 | 51.28094 | 6.76199 | 125 ft | 4 kts | 174° |
| 2026-05-07 20:50 | 51.28120 | 6.76201 | 125 ft | 4 kts | 206° |
| 2026-05-07 20:51 | 51.28136 | 6.76224 | 123 ft | 4 kts | 233° |
| 2026-05-07 20:51 | 51.28152 | 6.76258 | 126 ft | 4 kts | 233° |
| 2026-05-07 20:51 | 51.28168 | 6.76292 | 126 ft | 4 kts | 233° |
| 2026-05-07 20:51 | 51.28177 | 6.76311 | 124 ft | 0 kts | 233° |
| 2026-05-07 20:56 | 51.28175 | 6.76306 | 127 ft | 1 kts | 233° |
| 2026-05-07 20:56 | 51.28172 | 6.76300 | 123 ft | 1 kts | 233° |
| 2026-05-07 20:56 | 51.28169 | 6.76294 | 123 ft | 2 kts | 236° |
| 2026-05-07 20:56 | 51.28184 | 6.76245 | 124 ft | 7 kts | 331° |
| 2026-05-07 20:57 | 51.28209 | 6.76203 | 125 ft | 7 kts | 284° |
| 2026-05-07 20:57 | 51.28184 | 6.76134 | 126 ft | 7 kts | 229° |
| 2026-05-07 20:57 | 51.28157 | 6.76080 | 126 ft | 6 kts | 233° |
| 2026-05-07 20:57 | 51.28143 | 6.76050 | 127 ft | 1 kts | 233° |
| 2026-05-07 20:58 | 51.28140 | 6.76051 | 128 ft | 1 kts | 193° |
| 2026-05-07 20:58 | 51.28138 | 6.76064 | 129 ft | 1 kts | 98° |
| 2026-05-07 20:59 | 51.28145 | 6.76068 | 127 ft | 0 kts | 32° |
| 2026-05-07 20:59 | 51.28146 | 6.76069 | 127 ft | 0 kts | 32° |
| 2026-05-07 21:01 | 51.28168 | 6.76095 | 127 ft | 6 kts | 25° |
| 2026-05-07 21:01 | 51.28195 | 6.76082 | 128 ft | 0 kts | 329° |
| 2026-05-07 21:02 | 51.28204 | 6.76074 | 126 ft | 7 kts | 329° |
| 2026-05-07 21:02 | 51.28280 | 6.76032 | 125 ft | 13 kts | 342° |
| 2026-05-07 21:02 | 51.28345 | 6.76010 | 129 ft | 7 kts | 23° |
| 2026-05-07 21:03 | 51.28368 | 6.76053 | 126 ft | 0 kts | 51° |
| 2026-05-07 21:04 | 51.28474 | 6.76276 | 127 ft | 65 kts | 53° |
| 2026-05-07 21:04 | 51.28912 | 6.77198 | 128 ft | 133 kts | 53° |
| 2026-05-07 21:04 | 51.29532 | 6.78487 | 611 ft | 146 kts | 52° |
| 2026-05-07 21:04 | 51.30150 | 6.79790 | 1368 ft | 149 kts | 53° |
| 2026-05-07 21:05 | 51.30784 | 6.81181 | 2055 ft | 159 kts | 54° |
| 2026-05-07 21:05 | 51.31472 | 6.82658 | 2473 ft | 180 kts | 53° |
| 2026-05-07 21:05 | 51.32257 | 6.84362 | 2864 ft | 201 kts | 53° |
| 2026-05-07 21:05 | 51.33137 | 6.86299 | 3183 ft | 231 kts | 53° |
| 2026-05-07 21:06 | 51.34119 | 6.88517 | 3691 ft | 257 kts | 54° |
| 2026-05-07 21:06 | 51.35017 | 6.91012 | 4679 ft | 262 kts | 69° |
| 2026-05-07 21:06 | 51.35231 | 6.93930 | 5627 ft | 271 kts | 95° |
| 2026-05-07 21:06 | 51.34969 | 6.96923 | 6620 ft | 274 kts | 98° |
| 2026-05-07 21:07 | 51.34649 | 6.99967 | 7628 ft | 277 kts | 99° |
| 2026-05-07 21:07 | 51.34316 | 7.03035 | 8557 ft | 283 kts | 99° |
| 2026-05-07 21:07 | 51.33979 | 7.06141 | 9482 ft | 288 kts | 100° |
| 2026-05-07 21:07 | 51.33387 | 7.09240 | 10339 ft | 295 kts | 118° |
| 2026-05-07 21:08 | 51.32177 | 7.12034 | 10733 ft | 317 kts | 128° |
| 2026-05-07 21:08 | 51.31252 | 7.13912 | 11109 ft | 327 kts | 129° |
| 2026-05-07 21:08 | 51.29297 | 7.17771 | 12171 ft | 335 kts | 130° |
| 2026-05-07 21:08 | 51.28298 | 7.19728 | 12744 ft | 338 kts | 130° |
| 2026-05-07 21:09 | 51.26804 | 7.22662 | 13574 ft | 343 kts | 130° |
| 2026-05-07 21:09 | 51.25284 | 7.25662 | 14098 ft | 357 kts | 130° |
| 2026-05-07 21:09 | 51.23685 | 7.28827 | 14234 ft | 380 kts | 130° |
| 2026-05-07 21:09 | 51.21981 | 7.32209 | 14358 ft | 401 kts | 130° |
| 2026-05-07 21:10 | 51.20189 | 7.35769 | 14483 ft | 418 kts | 130° |
| 2026-05-07 21:10 | 51.18345 | 7.39433 | 14809 ft | 428 kts | 130° |
| 2026-05-07 21:10 | 51.16473 | 7.43152 | 15340 ft | 432 kts | 130° |
| 2026-05-07 21:10 | 51.14546 | 7.46978 | 15896 ft | 435 kts | 130° |
| 2026-05-07 21:11 | 51.12656 | 7.50723 | 16426 ft | 438 kts | 130° |
| 2026-05-07 21:11 | 51.10760 | 7.54463 | 16941 ft | 442 kts | 130° |
| 2026-05-07 21:11 | 51.06868 | 7.62112 | 17957 ft | 448 kts | 130° |
| 2026-05-07 21:12 | 51.04867 | 7.65937 | 18428 ft | 451 kts | 134° |
| 2026-05-07 21:12 | 51.02476 | 7.69156 | 18819 ft | 452 kts | 144° |
| 2026-05-07 21:12 | 50.99951 | 7.72155 | 19243 ft | 455 kts | 144° |
| 2026-05-07 21:12 | 50.97404 | 7.75150 | 19658 ft | 457 kts | 145° |
| 2026-05-07 21:13 | 50.94836 | 7.78153 | 20061 ft | 460 kts | 145° |
| 2026-05-07 21:13 | 50.92251 | 7.81168 | 20449 ft | 462 kts | 145° |
| 2026-05-07 21:13 | 50.89653 | 7.84190 | 20834 ft | 464 kts | 145° |
| 2026-05-07 21:13 | 50.86970 | 7.87308 | 21193 ft | 467 kts | 145° |
| 2026-05-07 21:14 | 50.84346 | 7.90355 | 21548 ft | 469 kts | 145° |
| 2026-05-07 21:14 | 50.81707 | 7.93418 | 21905 ft | 472 kts | 145° |
| 2026-05-07 21:14 | 50.79056 | 7.96497 | 22150 ft | 477 kts | 145° |
| 2026-05-07 21:14 | 50.76373 | 7.99613 | 22383 ft | 480 kts | 145° |
| 2026-05-07 21:15 | 50.73669 | 8.02746 | 22685 ft | 483 kts | 145° |
| 2026-05-07 21:15 | 50.70935 | 8.05908 | 22980 ft | 485 kts | 145° |
| 2026-05-07 21:15 | 50.68232 | 8.09033 | 23080 ft | 485 kts | 145° |
| 2026-05-07 21:15 | 50.65510 | 8.12155 | 23083 ft | 485 kts | 147° |
| 2026-05-07 21:16 | 50.62539 | 8.14633 | 23086 ft | 481 kts | 161° |
| 2026-05-07 21:16 | 50.59331 | 8.16080 | 23113 ft | 479 kts | 167° |
| 2026-05-07 21:16 | 50.56092 | 8.17350 | 23112 ft | 480 kts | 168° |
| 2026-05-07 21:16 | 50.52895 | 8.18574 | 23110 ft | 479 kts | 168° |
| 2026-05-07 21:17 | 50.49653 | 8.19798 | 23109 ft | 479 kts | 168° |
| 2026-05-07 21:17 | 50.46408 | 8.21024 | 23109 ft | 479 kts | 168° |
| 2026-05-07 21:17 | 50.43165 | 8.22256 | 23108 ft | 479 kts | 168° |
| 2026-05-07 21:17 | 50.39923 | 8.23494 | 23103 ft | 479 kts | 168° |
| 2026-05-07 21:18 | 50.36686 | 8.24734 | 23100 ft | 479 kts | 168° |
| 2026-05-07 21:18 | 50.33451 | 8.25977 | 23092 ft | 479 kts | 168° |
| 2026-05-07 21:18 | 50.30213 | 8.27218 | 23087 ft | 479 kts | 168° |
| 2026-05-07 21:18 | 50.26980 | 8.28456 | 23083 ft | 478 kts | 168° |
| 2026-05-07 21:19 | 50.23789 | 8.29673 | 23072 ft | 478 kts | 168° |
| 2026-05-07 21:19 | 50.20556 | 8.30900 | 23067 ft | 479 kts | 168° |
| 2026-05-07 21:19 | 50.17274 | 8.32145 | 23066 ft | 479 kts | 168° |
| 2026-05-07 21:19 | 50.14079 | 8.33353 | 23067 ft | 479 kts | 168° |
| 2026-05-07 21:20 | 50.10943 | 8.34538 | 23087 ft | 471 kts | 168° |
| 2026-05-07 21:20 | 50.07618 | 8.35797 | 23091 ft | 469 kts | 168° |
| 2026-05-07 21:20 | 50.04437 | 8.36995 | 23091 ft | 469 kts | 168° |
| 2026-05-07 21:20 | 50.01266 | 8.38189 | 23091 ft | 469 kts | 168° |
| 2026-05-07 21:21 | 49.98091 | 8.39384 | 23093 ft | 469 kts | 168° |
| 2026-05-07 21:21 | 49.94944 | 8.40566 | 23091 ft | 466 kts | 168° |
| 2026-05-07 21:21 | 49.91777 | 8.41749 | 23087 ft | 468 kts | 168° |
| 2026-05-07 21:21 | 49.88613 | 8.42929 | 23080 ft | 469 kts | 168° |
| 2026-05-07 21:22 | 49.85511 | 8.44478 | 23088 ft | 472 kts | 157° |
| 2026-05-07 21:22 | 49.82651 | 8.47007 | 23050 ft | 473 kts | 150° |
| 2026-05-07 21:22 | 49.79876 | 8.49676 | 22681 ft | 462 kts | 149° |
| 2026-05-07 21:22 | 49.77201 | 8.52283 | 22281 ft | 447 kts | 149° |
| 2026-05-07 21:23 | 49.74611 | 8.54819 | 21879 ft | 434 kts | 149° |
| 2026-05-07 21:23 | 49.72095 | 8.57282 | 21487 ft | 422 kts | 149° |
| 2026-05-07 21:23 | 49.69645 | 8.59674 | 21102 ft | 411 kts | 149° |
| 2026-05-07 21:23 | 49.67253 | 8.61997 | 20717 ft | 401 kts | 150° |
| 2026-05-07 21:24 | 49.64945 | 8.64227 | 20350 ft | 393 kts | 150° |
| 2026-05-07 21:24 | 49.62649 | 8.66438 | 19973 ft | 385 kts | 150° |
| 2026-05-07 21:24 | 49.60395 | 8.68602 | 19608 ft | 378 kts | 150° |
| 2026-05-07 21:24 | 49.58189 | 8.70719 | 19238 ft | 372 kts | 150° |
| 2026-05-07 21:25 | 49.56012 | 8.72807 | 18879 ft | 366 kts | 150° |
| 2026-05-07 21:25 | 49.53854 | 8.74877 | 18520 ft | 361 kts | 150° |
| 2026-05-07 21:25 | 49.51754 | 8.76964 | 18129 ft | 357 kts | 146° |
| 2026-05-07 21:25 | 49.49865 | 8.79405 | 17742 ft | 353 kts | 139° |
| 2026-05-07 21:26 | 49.48064 | 8.81944 | 17423 ft | 355 kts | 139° |
| 2026-05-07 21:26 | 49.46224 | 8.84547 | 17100 ft | 361 kts | 139° |
| 2026-05-07 21:26 | 49.44373 | 8.87161 | 16781 ft | 361 kts | 139° |
| 2026-05-07 21:26 | 49.42523 | 8.89768 | 16460 ft | 360 kts | 139° |
| 2026-05-07 21:27 | 49.40682 | 8.92359 | 16158 ft | 358 kts | 139° |
| 2026-05-07 21:27 | 49.38846 | 8.94939 | 15840 ft | 356 kts | 139° |
| 2026-05-07 21:27 | 49.37045 | 8.97460 | 15540 ft | 355 kts | 139° |
| 2026-05-07 21:27 | 49.35219 | 8.99989 | 15241 ft | 352 kts | 141° |
| 2026-05-07 21:28 | 49.33302 | 9.02310 | 14936 ft | 350 kts | 143° |
| 2026-05-07 21:28 | 49.31370 | 9.04563 | 14642 ft | 348 kts | 144° |
| 2026-05-07 21:28 | 49.29444 | 9.06798 | 14348 ft | 346 kts | 144° |
| 2026-05-07 21:28 | 49.27525 | 9.09016 | 14066 ft | 344 kts | 144° |
| 2026-05-07 21:29 | 49.25614 | 9.11215 | 13766 ft | 343 kts | 144° |
| 2026-05-07 21:29 | 49.23678 | 9.13440 | 13438 ft | 341 kts | 144° |
| 2026-05-07 21:29 | 49.21814 | 9.15585 | 13095 ft | 339 kts | 144° |
| 2026-05-07 21:29 | 49.19917 | 9.17772 | 12722 ft | 338 kts | 144° |
| 2026-05-07 21:30 | 49.18046 | 9.19935 | 12362 ft | 336 kts | 144° |
| 2026-05-07 21:30 | 49.16212 | 9.22059 | 12006 ft | 335 kts | 144° |
| 2026-05-07 21:30 | 49.14337 | 9.24238 | 11640 ft | 333 kts | 144° |
| 2026-05-07 21:30 | 49.12501 | 9.26373 | 11291 ft | 331 kts | 144° |
| 2026-05-07 21:31 | 49.10697 | 9.28474 | 10946 ft | 330 kts | 144° |
| 2026-05-07 21:31 | 49.08823 | 9.30474 | 10595 ft | 328 kts | 148° |
| 2026-05-07 21:31 | 49.06910 | 9.32344 | 10257 ft | 324 kts | 149° |
| 2026-05-07 21:31 | 49.05055 | 9.34150 | 9908 ft | 308 kts | 149° |
| 2026-05-07 21:32 | 49.03300 | 9.35864 | 9537 ft | 294 kts | 149° |
| 2026-05-07 21:32 | 49.01593 | 9.37530 | 9170 ft | 291 kts | 149° |
| 2026-05-07 21:32 | 48.99911 | 9.39169 | 8810 ft | 288 kts | 149° |
| 2026-05-07 21:32 | 48.98218 | 9.40816 | 8444 ft | 285 kts | 149° |
| 2026-05-07 21:33 | 48.96548 | 9.42438 | 8084 ft | 283 kts | 149° |
| 2026-05-07 21:33 | 48.94892 | 9.44043 | 7728 ft | 282 kts | 149° |
| 2026-05-07 21:33 | 48.93166 | 9.45416 | 7377 ft | 279 kts | 158° |
| 2026-05-07 21:33 | 48.91387 | 9.46565 | 7023 ft | 277 kts | 159° |
| 2026-05-07 21:34 | 48.89609 | 9.47680 | 6707 ft | 275 kts | 159° |
| 2026-05-07 21:34 | 48.87839 | 9.48776 | 6386 ft | 274 kts | 159° |
| 2026-05-07 21:34 | 48.86078 | 9.49858 | 6046 ft | 272 kts | 159° |
| 2026-05-07 21:34 | 48.84309 | 9.50861 | 5715 ft | 271 kts | 163° |
| 2026-05-07 21:35 | 48.82519 | 9.51701 | 5382 ft | 267 kts | 164° |
| 2026-05-07 21:35 | 48.80754 | 9.52492 | 5047 ft | 262 kts | 165° |
| 2026-05-07 21:35 | 48.78971 | 9.52814 | 4711 ft | 256 kts | 183° |
| 2026-05-07 21:35 | 48.77242 | 9.52325 | 4376 ft | 251 kts | 200° |
| 2026-05-07 21:36 | 48.75750 | 9.51150 | 4069 ft | 238 kts | 217° |
| 2026-05-07 21:36 | 48.74612 | 9.49496 | 4008 ft | 216 kts | 232° |
| 2026-05-07 21:36 | 48.73864 | 9.47670 | 4024 ft | 193 kts | 245° |
| 2026-05-07 21:36 | 48.73443 | 9.45887 | 3999 ft | 169 kts | 254° |
| 2026-05-07 21:37 | 48.73131 | 9.44224 | 3889 ft | 155 kts | 254° |
| 2026-05-07 21:37 | 48.72848 | 9.42714 | 3694 ft | 146 kts | 254° |
| 2026-05-07 21:37 | 48.72575 | 9.41255 | 3514 ft | 142 kts | 254° |
| 2026-05-07 21:37 | 48.72302 | 9.39823 | 3328 ft | 141 kts | 255° |
| 2026-05-07 21:38 | 48.72047 | 9.38393 | 3113 ft | 141 kts | 255° |
| 2026-05-07 21:38 | 48.71784 | 9.36967 | 2889 ft | 140 kts | 254° |
| 2026-05-07 21:38 | 48.71518 | 9.35545 | 2726 ft | 141 kts | 254° |
| 2026-05-07 21:38 | 48.71248 | 9.34107 | 2562 ft | 143 kts | 253° |
| 2026-05-07 21:39 | 48.70963 | 9.32619 | 2396 ft | 144 kts | 254° |
| 2026-05-07 21:39 | 48.70690 | 9.31200 | 2191 ft | 144 kts | 253° |
| 2026-05-07 21:39 | 48.70409 | 9.29777 | 1984 ft | 140 kts | 253° |
| 2026-05-07 21:39 | 48.70147 | 9.28383 | 1771 ft | 137 kts | 255° |
| 2026-05-07 21:40 | 48.69892 | 9.27020 | 1591 ft | 133 kts | 254° |
| 2026-05-07 21:40 | 48.69642 | 9.25684 | 1404 ft | 130 kts | 255° |
| 2026-05-07 21:40 | 48.69403 | 9.24389 | 1261 ft | 126 kts | 255° |
| 2026-05-07 21:40 | 48.69181 | 9.23213 | 1213 ft | 98 kts | 254° |
| 2026-05-07 21:41 | 48.69034 | 9.22437 | 1229 ft | 64 kts | 253° |
| 2026-05-07 21:41 | 48.68947 | 9.21949 | 1249 ft | 18 kts | 261° |
| 2026-05-07 21:41 | 48.68943 | 9.21767 | 1246 ft | 17 kts | 275° |
| 2026-05-07 21:41 | 48.68966 | 9.21592 | 1255 ft | 16 kts | 284° |
| 2026-05-07 21:42 | 48.68992 | 9.21441 | 1263 ft | 14 kts | 284° |
| 2026-05-07 21:42 | 48.68996 | 9.21312 | 1263 ft | 12 kts | 256° |
| 2026-05-07 21:42 | 48.68975 | 9.21201 | 1272 ft | 10 kts | 253° |
| 2026-05-07 21:42 | 48.68960 | 9.21124 | 1271 ft | 5 kts | 254° |
| 2026-05-07 21:43 | 48.68953 | 9.21090 | 1268 ft | 2 kts | 254° |
| 2026-05-07 21:43 | 48.68952 | 9.21085 | 1266 ft | 0 kts | 254° |
| 2026-05-07 21:43 | 48.68951 | 9.21076 | 1266 ft | 3 kts | 254° |
| 2026-05-07 21:43 | 48.68940 | 9.21020 | 1270 ft | 10 kts | 254° |
| 2026-05-07 21:44 | 48.68916 | 9.20886 | 1274 ft | 14 kts | 255° |
| 2026-05-07 21:44 | 48.68887 | 9.20735 | 1276 ft | 15 kts | 253° |
| 2026-05-07 21:44 | 48.68858 | 9.20584 | 1280 ft | 15 kts | 253° |
| 2026-05-07 21:44 | 48.68829 | 9.20434 | 1282 ft | 15 kts | 253° |
| 2026-05-07 21:45 | 48.68801 | 9.20285 | 1287 ft | 15 kts | 254° |
| 2026-05-07 21:45 | 48.68773 | 9.20139 | 1288 ft | 14 kts | 254° |
| 2026-05-07 21:45 | 48.68759 | 9.20010 | 1291 ft | 10 kts | 290° |
| 2026-05-07 21:45 | 48.68800 | 9.19943 | 1296 ft | 6 kts | 314° |
| 2026-05-07 21:46 | 48.68821 | 9.19912 | 1298 ft | 6 kts | 320° |
| 2026-05-07 21:46 | 48.68887 | 9.19867 | 1303 ft | 10 kts | 317° |
| 2026-05-07 21:46 | 48.68885 | 9.19792 | 1305 ft | 7 kts | 252° |
| 2026-05-07 21:46 | 48.68864 | 9.19684 | 1308 ft | 15 kts | 254° |
| 2026-05-07 21:47 | 48.68839 | 9.19554 | 1310 ft | 9 kts | 254° |
| 2026-05-07 21:47 | 48.68826 | 9.19482 | 1312 ft | 5 kts | 254° |
| 2026-05-07 21:47 | 48.68814 | 9.19419 | 1313 ft | 6 kts | 253° |
| 2026-05-07 21:47 | 48.68821 | 9.19388 | 1314 ft | 2 kts | 333° |
| 2026-05-07 21:48 | 48.68847 | 9.19375 | 1315 ft | 3 kts | 343° |
| 2026-05-07 21:48 | 48.68861 | 9.19369 | 1315 ft | 1 kts | 343° |
| 2026-05-07 21:48 | 48.68877 | 9.19362 | 1315 ft | 2 kts | 344° |
| 2026-05-07 21:48 | 48.68884 | 9.19359 | 1315 ft | 0 kts | 344° |